PDT,Max TemperatureF,Mean TemperatureF,Min TemperatureF,Max Dew PointF,MeanDew PointF,Min DewpointF,Max Humidity, Mean Humidity, Min Humidity, Max Sea Level PressureIn, Mean Sea Level PressureIn, Min Sea Level PressureIn, Max VisibilityMiles, Mean VisibilityMiles, Min VisibilityMiles, Max Wind SpeedMPH, Mean Wind SpeedMPH, Max Gust SpeedMPH,PrecipitationIn, CloudCover, Events, WindDirDegrees
2012-10-1,72,61,51,56,49,44,94,73,47,30.37,30.23,30.13,10,10,9,15,4,24,0.00,2,,12
2012-10-2,60,55,50,48,39,30,93,63,33,30.29,30.21,30.17,10,10,9,8,6,17,0.00,3,,2
2012-10-3,62,52,44,42,36,31,82,59,33,30.40,30.34,30.30,10,10,10,10,5,16,0.00,0,,357
2012-10-4,62,53,45,42,39,33,82,62,40,30.32,30.29,30.27,10,10,10,10,3,,0.00,0,,359
2012-10-5,66,54,45,41,36,28,86,54,28,30.32,30.27,30.23,10,10,10,8,2,,0.00,0,,360
2012-10-6,68,56,45,39,35,29,68,46,24,30.27,30.21,30.13,10,10,10,7,2,,0.00,0,,12
2012-10-7,70,58,46,44,40,37,79,55,31,30.12,30.04,29.94,10,10,10,6,2,,0.00,0,,2
2012-10-8,69,58,48,46,43,40,80,60,39,30.04,29.97,29.93,10,10,10,7,1,,0.00,0,,234
2012-10-9,57,52,48,48,46,43,94,84,72,30.14,30.09,30.05,10,6,2,8,4,,0.00,4,,200
2012-10-10,53,50,46,47,46,45,100,89,77,30.05,30.03,30.00,10,4,0,5,1,,0.00,7,Fog,350
2012-10-11,51,48,44,46,45,43,100,90,76,30.01,29.91,29.82,9,3,0,7,1,,0.00,7,Fog,310
2012-10-12,57,50,44,50,47,43,100,86,75,29.97,29.88,29.82,10,7,1,22,9,31,0.07,7,Rain,170
2012-10-13,61,57,53,56,53,50,94,86,77,30.12,30.07,29.97,10,9,2,26,18,37,0.19,8,Rain,179
2012-10-14,64,59,55,56,55,54,96,85,72,30.09,29.96,29.86,10,8,0,25,17,32,0.20,8,Fog-Rain,188
2012-10-15,62,56,51,58,53,48,100,91,72,29.95,29.80,29.52,10,6,0,22,5,32,0.20,7,Fog-Rain,159
2012-10-16,57,52,48,54,45,38,94,76,57,30.29,29.90,29.56,10,8,1,16,6,25,0.15,6,Rain,12
2012-10-17,55,50,44,45,42,39,90,74,59,30.35,30.28,30.21,10,10,10,6,2,,0.00,3,,183
2012-10-18,60,54,48,52,45,37,94,76,47,30.22,29.95,29.76,10,9,3,22,7,33,0.44,4,Rain,157
2012-10-19,57,52,46,54,48,43,97,90,86,29.82,29.78,29.73,10,6,0,31,17,45,0.65,8,Fog-Rain,104
2012-10-20,50,46,43,43,39,36,93,78,61,29.89,29.85,29.80,10,10,3,17,7,21,0.15,7,Rain,155
2012-10-21,52,46,41,41,38,35,89,81,54,29.88,29.85,29.79,10,10,8,15,11,20,0.11,6,Rain,164
2012-10-22,45,42,39,41,38,34,92,84,76,29.77,29.63,29.57,10,8,4,10,5,,0.16,6,Rain,102
2012-10-23,48,45,42,40,39,37,89,81,66,29.88,29.77,29.65,10,10,9,16,10,22,0.01,7,Rain,164
2012-10-24,50,45,42,42,40,37,89,80,71,30.18,29.98,29.86,10,10,7,9,3,,0.08,7,Rain,151
2012-10-25,51,47,44,43,41,39,93,81,66,30.43,30.36,30.20,10,10,6,8,3,,0.05,6,Rain,150
2012-10-26,51,48,45,48,42,35,93,82,61,30.31,30.12,30.03,10,8,2,15,7,23,0.07,7,Rain,143
2012-10-27,57,52,48,54,47,45,94,88,80,30.03,29.91,29.74,10,8,2,21,15,31,0.21,8,Rain,169
2012-10-28,57,54,50,54,50,48,94,86,70,29.94,29.89,29.77,10,9,4,15,7,25,0.19,7,Rain,180
2012-10-29,61,56,51,55,52,48,94,85,64,30.01,29.84,29.69,10,9,2,33,15,45,0.03,5,Rain,179
2012-10-30,59,56,53,55,54,51,94,93,87,29.97,29.84,29.76,10,5,0,15,8,21,0.79,8,Fog-Rain,147
2012-10-31,60,57,55,54,53,48,94,87,74,29.77,29.71,29.63,10,7,2,16,8,23,1.15,8,Rain,152